createdAt,value
2023-03-22T00:00:44.154Z,12.06
2023-03-22T00:02:48.143Z,12.10
2023-03-22T00:04:50.756Z,12.06
2023-03-22T00:06:53.432Z,12.08
2023-03-22T00:08:56.412Z,12.07
2023-03-22T00:10:58.968Z,12.03
2023-03-22T00:13:02.019Z,12.00
2023-03-22T00:15:05.033Z,12.05
2023-03-22T00:17:07.629Z,12.01
2023-03-22T00:19:11.539Z,12.02
2023-03-22T00:21:15.760Z,12.01
2023-03-22T00:23:18.527Z,11.98
2023-03-22T00:25:21.081Z,11.97
2023-03-22T00:27:23.654Z,11.98
2023-03-22T00:29:26.225Z,11.98
2023-03-22T00:31:28.865Z,11.95
2023-03-22T00:33:33.420Z,11.93
2023-03-22T00:35:37.397Z,11.91
2023-03-22T00:37:40.236Z,11.88
2023-03-22T00:39:42.969Z,11.86
2023-03-22T00:41:45.568Z,11.85
2023-03-22T00:43:48.836Z,11.82
2023-03-22T00:45:51.423Z,11.79
2023-03-22T00:47:54.081Z,11.82
2023-03-22T00:49:56.753Z,11.80
2023-03-22T00:52:00.692Z,11.83
2023-03-22T00:54:06.081Z,11.75
2023-03-22T00:56:09.638Z,11.63
2023-03-22T00:58:15.280Z,11.62
2023-03-22T01:00:18.629Z,11.55
2023-03-22T01:02:21.219Z,11.53
2023-03-22T01:04:28.846Z,11.48
2023-03-22T01:06:31.751Z,11.45
2023-03-22T01:08:39.063Z,11.40
2023-03-22T01:10:43.337Z,11.40
2023-03-22T01:12:46.393Z,11.37
2023-03-22T01:14:48.992Z,11.36
2023-03-22T01:16:51.717Z,11.31
2023-03-22T01:18:54.378Z,11.25
2023-03-22T01:20:56.980Z,11.28
2023-03-22T01:22:59.722Z,11.22
2023-03-22T01:25:03.865Z,11.24
2023-03-22T01:27:07.151Z,11.18
2023-03-22T01:29:10.192Z,11.18
2023-03-22T01:31:12.867Z,11.10
2023-03-22T01:33:15.652Z,11.15
2023-03-22T01:35:18.344Z,11.04
2023-03-22T01:37:21.955Z,10.95
2023-03-22T01:39:24.568Z,10.98
2023-03-22T01:41:28.555Z,10.96
2023-03-22T01:43:31.160Z,10.92
2023-03-22T01:45:45.788Z,10.83
2023-03-22T01:47:54.999Z,10.86
2023-03-22T01:50:00.772Z,10.82
2023-03-22T01:52:10.547Z,10.81
2023-03-22T01:54:19.258Z,10.78
2023-03-22T01:56:24.611Z,10.72
2023-03-22T01:58:28.686Z,10.67
2023-03-22T02:00:31.938Z,10.64
2023-03-22T02:02:34.858Z,10.62
2023-03-22T02:04:39.353Z,10.58
2023-03-22T02:06:42.739Z,10.58
2023-03-22T02:08:45.434Z,10.57
2023-03-22T02:10:48.060Z,10.64
2023-03-22T02:13:05.293Z,10.67
2023-03-22T02:15:13.423Z,10.58
2023-03-22T02:17:27.606Z,10.57
2023-03-22T02:20:05.683Z,10.49
2023-03-22T02:22:25.884Z,10.47
2023-03-22T02:24:56.210Z,10.43
2023-03-22T02:27:21.850Z,10.44
2023-03-22T02:29:33.010Z,10.47
2023-03-22T02:31:59.312Z,10.43
2023-03-22T02:34:27.742Z,10.42
2023-03-22T02:36:42.829Z,10.37
2023-03-22T02:39:19.832Z,10.34
2023-03-22T02:41:31.967Z,10.31
2023-03-22T02:43:39.102Z,10.29
2023-03-22T02:45:47.971Z,10.30
2023-03-22T02:47:57.284Z,10.29
2023-03-22T02:50:07.044Z,10.30
2023-03-22T02:52:17.269Z,10.34
2023-03-22T02:54:26.289Z,10.37
2023-03-22T02:56:33.598Z,10.37
2023-03-22T02:58:40.202Z,10.38
2023-03-22T03:00:45.122Z,10.46
2023-03-22T03:02:51.771Z,10.50
2023-03-22T03:04:56.720Z,10.42
2023-03-22T03:07:03.828Z,10.43
2023-03-22T03:09:07.254Z,10.43
2023-03-22T03:11:11.697Z,10.43
2023-03-22T03:13:16.247Z,10.45
2023-03-22T03:15:21.176Z,10.48
2023-03-22T03:17:39.439Z,10.41
2023-03-22T03:19:51.243Z,10.33
2023-03-22T03:21:57.348Z,10.27
2023-03-22T03:24:14.335Z,10.29
2023-03-22T03:26:25.314Z,10.22
2023-03-22T03:28:38.353Z,10.21
2023-03-22T03:30:48.339Z,10.21
2023-03-22T03:32:54.507Z,10.20
2023-03-22T03:35:03.478Z,10.22
2023-03-22T03:37:10.468Z,10.20
2023-03-22T03:39:15.993Z,10.17
2023-03-22T03:41:23.610Z,10.16
2023-03-22T03:43:26.865Z,10.13
2023-03-22T03:45:30.601Z,10.06
2023-03-22T03:47:33.452Z,9.99
2023-03-22T03:49:36.902Z,9.89
2023-03-22T03:51:48.637Z,9.80
2023-03-22T03:53:51.225Z,9.74
2023-03-22T03:55:53.797Z,9.74
2023-03-22T03:57:57.685Z,9.68
2023-03-22T04:00:00.348Z,9.63
2023-03-22T04:02:02.959Z,9.63
2023-03-22T04:04:05.630Z,9.62
2023-03-22T04:06:09.823Z,9.64
2023-03-22T04:08:12.392Z,9.61
2023-03-22T04:10:16.966Z,9.60
2023-03-22T04:12:19.548Z,9.55
2023-03-22T04:14:24.157Z,9.54
2023-03-22T04:16:26.784Z,9.49
2023-03-22T04:18:30.180Z,9.46
2023-03-22T04:20:32.764Z,9.45
2023-03-22T04:22:38.357Z,9.45
2023-03-22T04:24:41.189Z,9.43
2023-03-22T04:26:43.763Z,9.42
2023-03-22T04:28:46.346Z,9.40
2023-03-22T04:30:51.914Z,9.40
2023-03-22T04:32:54.584Z,9.37
2023-03-22T04:34:57.163Z,9.34
2023-03-22T04:37:02.444Z,9.33
2023-03-22T04:39:06.914Z,9.31
2023-03-22T04:41:09.567Z,9.31
2023-03-22T04:43:13.723Z,9.33
2023-03-22T04:45:16.588Z,9.22
2023-03-22T04:47:20.588Z,9.19
2023-03-22T04:49:23.376Z,9.18
2023-03-22T04:51:27.079Z,9.17
2023-03-22T04:53:29.820Z,9.12
2023-03-22T04:55:34.137Z,9.10
2023-03-22T04:57:36.899Z,9.13
2023-03-22T04:59:39.480Z,9.12
2023-03-22T05:01:42.645Z,9.15
2023-03-22T05:03:47.475Z,9.10
2023-03-22T05:05:54.666Z,9.08
2023-03-22T05:07:57.302Z,9.06
2023-03-22T05:09:59.906Z,9.11
2023-03-22T05:12:02.478Z,9.17
2023-03-22T05:14:05.471Z,9.06
2023-03-22T05:16:09.851Z,9.05
2023-03-22T05:18:14.341Z,8.99
2023-03-22T05:20:18.300Z,8.96
2023-03-22T05:22:22.453Z,8.91
2023-03-22T05:24:25.260Z,8.87
2023-03-22T05:26:28.438Z,8.83
2023-03-22T05:28:31.876Z,8.81
2023-03-22T05:30:34.731Z,8.80
2023-03-22T05:32:37.553Z,8.80
2023-03-22T05:34:42.803Z,8.80
2023-03-22T05:36:51.472Z,8.74
2023-03-22T05:38:54.060Z,8.74
2023-03-22T05:40:56.617Z,8.76
2023-03-22T05:42:59.229Z,8.79
2023-03-22T05:45:01.918Z,8.80
2023-03-22T05:47:06.608Z,8.82
2023-03-22T05:49:11.131Z,8.84
2023-03-22T05:51:17.737Z,8.86
2023-03-22T05:53:21.700Z,8.87
2023-03-22T05:55:24.591Z,8.88
2023-03-22T05:57:29.912Z,8.89
2023-03-22T05:59:32.610Z,8.95
2023-03-22T06:01:35.328Z,8.98
2023-03-22T06:03:38.397Z,8.98
2023-03-22T06:05:41.360Z,9.00
2023-03-22T06:07:44.330Z,8.98
2023-03-22T06:09:49.475Z,9.01
2023-03-22T06:11:52.187Z,9.00
2023-03-22T06:13:54.729Z,9.00
2023-03-22T06:16:00.395Z,9.00
2023-03-22T06:18:03.183Z,9.01
2023-03-22T06:20:09.871Z,9.05
2023-03-22T06:22:12.594Z,9.06
2023-03-22T06:24:15.299Z,9.06
2023-03-22T06:26:19.203Z,9.11
2023-03-22T06:28:21.776Z,9.16
2023-03-22T06:30:24.719Z,9.16
2023-03-22T06:32:27.618Z,9.18
2023-03-22T06:34:30.309Z,9.21
2023-03-22T06:36:33.119Z,9.21
2023-03-22T06:38:35.720Z,9.20
2023-03-22T06:40:38.633Z,9.21
2023-03-22T06:42:42.855Z,9.24
2023-03-22T06:44:45.456Z,9.26
2023-03-22T06:46:48.531Z,9.31
2023-03-22T06:48:51.112Z,9.30
2023-03-22T06:50:53.658Z,9.31
2023-03-22T06:52:56.397Z,9.31
2023-03-22T06:54:58.963Z,9.38
2023-03-22T06:57:01.571Z,9.45
2023-03-22T06:59:05.530Z,9.41
2023-03-22T07:01:08.215Z,9.41
2023-03-22T07:03:10.889Z,9.44
2023-03-22T07:05:13.496Z,9.44
2023-03-22T07:07:16.284Z,9.50
2023-03-22T07:09:19.062Z,9.70
2023-03-22T07:11:22.861Z,9.71
2023-03-22T07:13:25.618Z,9.77
2023-03-22T07:15:29.505Z,9.70
2023-03-22T07:17:32.131Z,9.72
2023-03-22T07:19:34.800Z,9.94
2023-03-22T07:21:37.394Z,9.99
2023-03-22T07:23:39.921Z,9.99
2023-03-22T07:25:42.495Z,9.93
2023-03-22T07:27:45.665Z,9.92
2023-03-22T07:29:48.331Z,9.93
2023-03-22T07:31:52.289Z,10.08
2023-03-22T07:33:54.892Z,10.04
2023-03-22T07:35:57.557Z,10.05
2023-03-22T07:38:00.870Z,10.01
2023-03-22T07:40:05.299Z,10.15
2023-03-22T07:42:07.957Z,10.30
2023-03-22T07:44:17.635Z,10.14
2023-03-22T07:46:20.705Z,10.27
2023-03-22T07:48:25.280Z,10.19
2023-03-22T07:50:27.865Z,10.17
2023-03-22T07:52:30.548Z,10.17
2023-03-22T07:54:34.491Z,10.22
2023-03-22T07:56:37.700Z,10.23
2023-03-22T07:58:40.340Z,10.25
2023-03-22T08:00:42.933Z,10.28
2023-03-22T08:02:46.207Z,10.31
2023-03-22T08:04:53.161Z,10.37
2023-03-22T08:06:58.697Z,10.41
2023-03-22T08:09:01.297Z,10.55
2023-03-22T08:11:04.187Z,10.59
2023-03-22T08:13:06.811Z,10.70
2023-03-22T08:15:10.869Z,10.69
2023-03-22T08:17:13.688Z,10.78
2023-03-22T08:19:16.294Z,10.99
2023-03-22T08:21:20.306Z,11.00
2023-03-22T08:23:38.515Z,11.04
2023-03-22T08:25:44.171Z,10.99
2023-03-22T08:27:47.135Z,10.97
2023-03-22T08:29:49.733Z,11.08
2023-03-22T08:31:52.822Z,11.03
2023-03-22T08:33:58.408Z,11.04
2023-03-22T08:36:08.082Z,11.12
2023-03-22T08:38:12.096Z,11.15
2023-03-22T08:40:15.182Z,11.19
2023-03-22T08:42:17.792Z,11.63
2023-03-22T08:44:20.371Z,11.70
2023-03-22T08:46:23.085Z,11.79
2023-03-22T08:48:28.993Z,11.78
2023-03-22T08:50:34.349Z,11.82
2023-03-22T08:52:37.034Z,11.72
2023-03-22T08:54:40.978Z,11.72
2023-03-22T08:56:43.531Z,11.98
2023-03-22T08:58:48.128Z,12.13
2023-03-22T09:00:51.226Z,11.99
2023-03-22T09:02:53.901Z,12.08
2023-03-22T09:04:56.493Z,12.23
2023-03-22T09:06:59.133Z,12.19
2023-03-22T09:09:01.899Z,12.08
2023-03-22T09:11:08.895Z,12.05
2023-03-22T09:13:13.350Z,12.06
2023-03-22T09:15:16.164Z,12.10
2023-03-22T09:17:21.243Z,12.22
2023-03-22T09:19:24.581Z,12.14
2023-03-22T09:21:27.171Z,12.12
2023-03-22T09:23:30.546Z,12.25
2023-03-22T09:25:33.201Z,12.30
2023-03-22T09:27:37.292Z,12.27
2023-03-22T09:29:39.903Z,12.32
2023-03-22T09:31:43.409Z,12.46
2023-03-22T09:33:46.255Z,12.36
2023-03-22T09:35:48.840Z,12.38
2023-03-22T09:37:53.267Z,12.33
2023-03-22T09:39:56.006Z,12.38
2023-03-22T09:42:01.961Z,12.74
2023-03-22T09:44:09.164Z,12.75
2023-03-22T09:46:15.865Z,12.89
2023-03-22T09:48:23.242Z,12.77
2023-03-22T09:50:28.854Z,12.81
2023-03-22T09:52:31.887Z,12.96
2023-03-22T09:54:36.009Z,13.40
2023-03-22T09:56:38.646Z,13.35
2023-03-22T09:58:47.195Z,13.43
2023-03-22T10:00:56.926Z,13.46
2023-03-22T10:03:06.261Z,13.42
2023-03-22T10:05:21.785Z,13.37
2023-03-22T10:07:30.162Z,13.54
2023-03-22T10:09:43.083Z,13.70
2023-03-22T10:11:47.959Z,13.68
2023-03-22T10:13:58.448Z,13.52
2023-03-22T10:16:04.473Z,13.80
2023-03-22T10:18:12.503Z,13.67
2023-03-22T10:20:29.678Z,13.67
2023-03-22T10:22:36.312Z,13.91
2023-03-22T10:24:42.671Z,13.76
2023-03-22T10:26:47.787Z,13.76
2023-03-22T10:28:59.369Z,13.86
2023-03-22T10:31:05.753Z,14.19
2023-03-22T10:33:14.888Z,14.27
2023-03-22T10:35:18.057Z,14.22
2023-03-22T10:37:24.821Z,14.35
2023-03-22T10:39:32.449Z,14.54
2023-03-22T10:41:35.591Z,14.35
2023-03-22T10:43:39.998Z,14.29
2023-03-22T10:45:44.108Z,14.43
2023-03-22T10:47:54.193Z,14.50
2023-03-22T10:49:58.334Z,14.74
2023-03-22T10:52:05.674Z,14.61
2023-03-22T10:54:14.409Z,14.57
2023-03-22T10:56:20.024Z,14.75
2023-03-22T10:58:27.123Z,14.64
2023-03-22T11:00:29.777Z,14.83
2023-03-22T11:02:33.645Z,14.89
2023-03-22T11:04:38.381Z,15.00
2023-03-22T11:06:49.855Z,14.95
2023-03-22T11:08:54.532Z,14.90
2023-03-22T11:11:00.265Z,14.91
2023-03-22T11:13:18.484Z,14.95
2023-03-22T11:15:27.889Z,15.20
2023-03-22T11:17:33.026Z,15.36
2023-03-22T11:19:39.156Z,15.21
2023-03-22T11:21:43.290Z,15.45
2023-03-22T11:23:55.009Z,15.49
2023-03-22T11:26:01.028Z,15.34
2023-03-22T11:28:10.961Z,15.52
2023-03-22T11:30:21.062Z,15.37
2023-03-22T11:32:28.869Z,15.58
2023-03-22T11:34:32.174Z,15.48
2023-03-22T11:36:45.296Z,15.46
2023-03-22T11:38:48.943Z,15.43
2023-03-22T11:40:56.584Z,15.71
2023-03-22T11:43:16.594Z,15.72
2023-03-22T11:45:25.167Z,15.80
2023-03-22T11:47:33.837Z,15.71
2023-03-22T11:49:41.544Z,15.75
2023-03-22T11:51:46.472Z,15.81
2023-03-22T11:53:49.906Z,15.96
2023-03-22T11:55:58.044Z,16.10
2023-03-22T11:58:00.614Z,16.28
2023-03-22T12:00:11.335Z,16.15
2023-03-22T12:02:21.070Z,16.13
2023-03-22T12:04:27.816Z,15.95
2023-03-22T12:06:34.437Z,15.99
2023-03-22T12:08:43.935Z,15.96
2023-03-22T12:10:52.597Z,15.92
2023-03-22T12:12:59.493Z,15.81
2023-03-22T12:15:05.840Z,16.09
2023-03-22T12:17:16.724Z,16.05
2023-03-22T12:19:29.468Z,15.84
2023-03-22T12:21:33.759Z,15.75
2023-03-22T12:23:36.909Z,15.82
2023-03-22T12:25:43.625Z,15.88
2023-03-22T12:27:49.286Z,15.82
2023-03-22T12:29:57.676Z,16.11
2023-03-22T12:32:07.121Z,16.20
2023-03-22T12:34:15.799Z,16.22
2023-03-22T12:36:21.693Z,16.25
2023-03-22T12:38:34.044Z,16.25
2023-03-22T12:40:40.635Z,16.49
2023-03-22T12:42:56.633Z,16.55
2023-03-22T12:45:06.013Z,16.75
2023-03-22T12:47:18.924Z,16.72
2023-03-22T12:49:28.140Z,16.99
2023-03-22T12:51:30.715Z,17.03
2023-03-22T12:53:42.280Z,17.00
2023-03-22T12:55:46.875Z,17.09
2023-03-22T12:57:54.389Z,17.11
2023-03-22T13:00:00.381Z,17.18
2023-03-22T13:02:12.723Z,17.49
2023-03-22T13:04:32.261Z,17.64
2023-03-22T13:06:56.758Z,17.91
2023-03-22T13:09:15.639Z,18.13
2023-03-22T13:11:25.232Z,18.38
2023-03-22T13:13:42.285Z,18.72
2023-03-22T13:16:00.690Z,18.96
2023-03-22T13:18:03.394Z,19.45
2023-03-22T13:20:31.178Z,19.93
2023-03-22T13:23:05.282Z,20.58
2023-03-22T13:25:17.088Z,20.99
2023-03-22T13:27:20.102Z,21.25
2023-03-22T13:29:26.396Z,21.42
2023-03-22T13:31:38.458Z,21.66
2023-03-22T13:33:44.739Z,21.77
2023-03-22T13:35:51.255Z,21.85
2023-03-22T13:37:54.831Z,22.02
2023-03-22T13:40:02.006Z,22.28
2023-03-22T13:42:10.334Z,22.50
2023-03-22T13:44:30.465Z,22.76
2023-03-22T13:46:50.630Z,23.10
2023-03-22T13:49:00.337Z,23.11
2023-03-22T13:51:12.015Z,23.34
2023-03-22T13:53:21.425Z,23.53
2023-03-22T13:55:41.528Z,23.57
2023-03-22T13:57:58.869Z,23.60
2023-03-22T14:00:14.802Z,23.61
2023-03-22T14:02:26.106Z,23.61
2023-03-22T14:04:34.914Z,23.67
2023-03-22T14:06:46.081Z,23.76
2023-03-22T14:08:52.475Z,23.51
2023-03-22T14:11:01.090Z,23.41
2023-03-22T14:13:07.219Z,23.18
2023-03-22T14:15:17.464Z,23.13
2023-03-22T14:17:31.188Z,22.97
2023-03-22T14:19:35.844Z,22.94
2023-03-22T14:21:40.785Z,22.82
